OJAQ/AQJ METAR and TAF weather

Enter ICAO airport designator
Station Type Date Time Source
OJAQ METAR 2021/08/04 18:00 UTC NOAA

OJAQ 041800Z 14004KT CAVOK 35/12 Q1006 NOSIG


Station Type Date Time Source
OJAQ Decoded METAR 2021/08/04 18:00 UTC NOAA

Aqaba Airport, Jordan (OJAQ) 29-38N 035-01E 51M
Aug 04, 2021 - 02:00 PM EDT / 2021.08.04 1800 UTC
Wind: from the SE (140 degrees) at 5 MPH (4 KT):0
Visibility: greater than 7 mile(s):0
Temperature: 95 F (35 C)
Dew Point: 53 F (12 C)
Relative Humidity: 24%
Pressure (altimeter): 29.71 in. Hg (1006 hPa)
ob: OJAQ 041800Z 14004KT CAVOK 35/12 Q1006 NOSIG
cycle: 18

Station Type Date Time Source
OJAQ TAF 2021/08/04 18:15 UTC NOAA

TAF TAF OJAQ 041700Z 0418/0524 18010KT 7000 NSC
TEMPO 0418/0512 35012KT

Example: see airport list